Terminal Aerodrome Forecast
Issued by NWS

Home | Current Version | Previous Version | Text Only | Print | Product List | Glossary Off
Versions: 1 2 3 4 5 6 7 8 9 10 11 12

000
FTUS45 KGGW 210526
TAFGDV
TAF
KGDV 210526Z 2106/2206 04009KT P6SM BKN140
     FM211300 08008KT P6SM BKN050
     FM211800 10012KT P6SM SCT035 OVC045
     FM220500 13012KT P6SM VCSH BKN020=

USA.gov is the U.S. government's official web portal to all federal, state and local government web resources and services.